sensor_id;sensor_type;location;lat;lon;timestamp;pressure;altitude;pressure_sealevel;temperature;humidity
36788;BME280;22738;45.560;9.434;2022-12-16T00:05:10;98539.91;;;4.00;100.00
36788;BME280;22738;45.560;9.434;2022-12-16T00:12:30;98531.13;;;4.04;100.00
36788;BME280;22738;45.560;9.434;2022-12-16T00:19:40;98536.22;;;4.04;100.00
36788;BME280;22738;45.560;9.434;2022-12-16T00:26:22;98536.44;;;4.01;100.00
36788;BME280;22738;45.560;9.434;2022-12-16T00:33:04;98540.75;;;4.15;100.00
36788;BME280;22738;45.560;9.434;2022-12-16T00:39:45;98540.94;;;4.12;100.00
36788;BME280;22738;45.560;9.434;2022-12-16T00:46:26;98537.38;;;4.14;100.00
36788;BME280;22738;45.560;9.434;2022-12-16T00:53:07;98533.91;;;4.15;100.00
36788;BME280;22738;45.560;9.434;2022-12-16T00:59:48;98535.97;;;4.09;100.00
36788;BME280;22738;45.560;9.434;2022-12-16T01:06:30;98537.91;;;4.05;100.00
36788;BME280;22738;45.560;9.434;2022-12-16T01:13:11;98548.00;;;4.08;100.00
36788;BME280;22738;45.560;9.434;2022-12-16T01:19:53;98550.81;;;4.04;100.00
36788;BME280;22738;45.560;9.434;2022-12-16T01:26:34;98555.69;;;4.08;100.00
36788;BME280;22738;45.560;9.434;2022-12-16T01:33:15;98547.78;;;4.11;100.00
36788;BME280;22738;45.560;9.434;2022-12-16T01:39:57;98538.06;;;4.02;100.00
36788;BME280;22738;45.560;9.434;2022-12-16T01:46:38;98536.03;;;3.93;100.00
36788;BME280;22738;45.560;9.434;2022-12-16T01:53:19;98534.66;;;3.88;100.00
36788;BME280;22738;45.560;9.434;2022-12-16T02:00:04;98546.56;;;3.89;100.00
36788;BME280;22738;45.560;9.434;2022-12-16T02:06:53;98548.22;;;3.90;100.00
36788;BME280;22738;45.560;9.434;2022-12-16T02:48:35;98548.44;;;3.71;100.00
36788;BME280;22738;45.560;9.434;2022-12-16T02:55:16;98549.78;;;3.63;100.00
36788;BME280;22738;45.560;9.434;2022-12-16T03:02:10;98540.53;;;3.60;100.00
36788;BME280;22738;45.560;9.434;2022-12-16T03:08:55;98529.16;;;3.50;100.00
36788;BME280;22738;45.560;9.434;2022-12-16T03:15:38;98552.13;;;3.51;100.00
36788;BME280;22738;45.560;9.434;2022-12-16T03:22:24;98548.16;;;3.46;100.00
36788;BME280;22738;45.560;9.434;2022-12-16T03:29:13;98538.09;;;3.43;100.00
36788;BME280;22738;45.560;9.434;2022-12-16T03:36:08;98537.03;;;3.47;100.00
36788;BME280;22738;45.560;9.434;2022-12-16T03:42:51;98534.19;;;3.51;100.00
36788;BME280;22738;45.560;9.434;2022-12-16T03:49:33;98528.91;;;3.39;100.00
36788;BME280;22738;45.560;9.434;2022-12-16T03:56:15;98536.09;;;3.48;100.00
36788;BME280;22738;45.560;9.434;2022-12-16T04:02:56;98527.09;;;3.41;100.00
36788;BME280;22738;45.560;9.434;2022-12-16T04:09:37;98532.63;;;3.49;100.00
36788;BME280;22738;45.560;9.434;2022-12-16T04:16:21;98535.09;;;3.50;100.00
36788;BME280;22738;45.560;9.434;2022-12-16T04:23:23;98537.75;;;3.49;100.00
36788;BME280;22738;45.560;9.434;2022-12-16T04:30:25;98544.50;;;3.50;100.00
36788;BME280;22738;45.560;9.434;2022-12-16T04:37:07;98559.56;;;3.56;100.00
36788;BME280;22738;45.560;9.434;2022-12-16T04:44:07;98551.28;;;3.51;100.00
36788;BME280;22738;45.560;9.434;2022-12-16T04:51:07;98557.88;;;3.55;100.00
36788;BME280;22738;45.560;9.434;2022-12-16T04:58:08;98553.75;;;3.52;100.00
36788;BME280;22738;45.560;9.434;2022-12-16T05:05:07;98553.69;;;3.54;100.00
36788;BME280;22738;45.560;9.434;2022-12-16T05:12:11;98558.09;;;3.52;100.00
36788;BME280;22738;45.560;9.434;2022-12-16T05:19:11;98549.63;;;3.50;100.00
36788;BME280;22738;45.560;9.434;2022-12-16T05:26:10;98553.59;;;3.55;100.00
36788;BME280;22738;45.560;9.434;2022-12-16T05:33:10;98552.19;;;3.50;100.00
36788;BME280;22738;45.560;9.434;2022-12-16T05:40:11;98570.78;;;3.53;100.00
36788;BME280;22738;45.560;9.434;2022-12-16T05:47:10;98554.06;;;3.62;100.00
36788;BME280;22738;45.560;9.434;2022-12-16T05:54:10;98558.31;;;3.63;100.00
36788;BME280;22738;45.560;9.434;2022-12-16T06:01:10;98552.09;;;3.67;100.00
36788;BME280;22738;45.560;9.434;2022-12-16T06:08:09;98570.13;;;3.66;100.00
36788;BME280;22738;45.560;9.434;2022-12-16T06:15:11;98562.19;;;3.70;100.00
36788;BME280;22738;45.560;9.434;2022-12-16T06:22:10;98558.03;;;3.68;100.00
36788;BME280;22738;45.560;9.434;2022-12-16T06:29:09;98560.41;;;3.71;100.00
36788;BME280;22738;45.560;9.434;2022-12-16T06:36:11;98576.19;;;3.79;100.00
36788;BME280;22738;45.560;9.434;2022-12-16T06:43:10;98582.16;;;3.79;100.00
36788;BME280;22738;45.560;9.434;2022-12-16T06:50:10;98576.25;;;3.77;100.00
36788;BME280;22738;45.560;9.434;2022-12-16T06:57:10;98579.66;;;3.78;100.00
36788;BME280;22738;45.560;9.434;2022-12-16T07:04:09;98581.97;;;3.82;100.00
36788;BME280;22738;45.560;9.434;2022-12-16T07:11:09;98602.13;;;3.88;100.00
36788;BME280;22738;45.560;9.434;2022-12-16T07:18:10;98607.25;;;3.88;100.00
36788;BME280;22738;45.560;9.434;2022-12-16T07:25:09;98610.56;;;3.90;100.00
36788;BME280;22738;45.560;9.434;2022-12-16T07:32:09;98614.41;;;3.97;100.00
36788;BME280;22738;45.560;9.434;2022-12-16T07:39:09;98616.47;;;4.06;100.00
36788;BME280;22738;45.560;9.434;2022-12-16T07:46:08;98622.91;;;4.13;100.00
36788;BME280;22738;45.560;9.434;2022-12-16T07:53:08;98632.78;;;4.19;100.00
36788;BME280;22738;45.560;9.434;2022-12-16T08:00:08;98638.28;;;4.27;100.00
36788;BME280;22738;45.560;9.434;2022-12-16T08:07:07;98653.81;;;4.40;100.00
36788;BME280;22738;45.560;9.434;2022-12-16T08:14:07;98655.19;;;4.46;100.00
36788;BME280;22738;45.560;9.434;2022-12-16T08:21:06;98663.06;;;4.57;100.00
36788;BME280;22738;45.560;9.434;2022-12-16T08:28:06;98683.06;;;4.66;100.00
36788;BME280;22738;45.560;9.434;2022-12-16T08:35:07;98699.22;;;4.68;100.00
36788;BME280;22738;45.560;9.434;2022-12-16T08:42:07;98706.72;;;4.71;100.00
36788;BME280;22738;45.560;9.434;2022-12-16T08:49:08;98705.09;;;4.70;100.00
36788;BME280;22738;45.560;9.434;2022-12-16T08:56:07;98702.00;;;4.79;100.00
36788;BME280;22738;45.560;9.434;2022-12-16T09:03:07;98723.53;;;4.90;100.00
36788;BME280;22738;45.560;9.434;2022-12-16T09:10:06;98731.78;;;4.95;100.00
36788;BME280;22738;45.560;9.434;2022-12-16T09:17:09;98734.47;;;5.22;100.00
36788;BME280;22738;45.560;9.434;2022-12-16T09:24:10;98744.38;;;5.28;100.00
36788;BME280;22738;45.560;9.434;2022-12-16T09:31:10;98746.66;;;5.33;100.00
36788;BME280;22738;45.560;9.434;2022-12-16T09:38:10;98755.38;;;5.30;100.00
36788;BME280;22738;45.560;9.434;2022-12-16T09:45:28;98761.25;;;5.32;100.00
36788;BME280;22738;45.560;9.434;2022-12-16T09:52:40;98763.75;;;5.34;100.00
36788;BME280;22738;45.560;9.434;2022-12-16T09:59:43;98755.94;;;5.35;100.00
36788;BME280;22738;45.560;9.434;2022-12-16T10:06:51;98755.38;;;5.30;100.00
36788;BME280;22738;45.560;9.434;2022-12-16T10:13:55;98755.00;;;5.36;100.00
36788;BME280;22738;45.560;9.434;2022-12-16T10:20:57;98753.94;;;5.40;100.00
36788;BME280;22738;45.560;9.434;2022-12-16T10:35:22;98757.97;;;5.44;100.00
36788;BME280;22738;45.560;9.434;2022-12-16T10:42:27;98755.22;;;5.47;100.00
36788;BME280;22738;45.560;9.434;2022-12-16T10:49:28;98753.38;;;5.49;100.00
36788;BME280;22738;45.560;9.434;2022-12-16T11:03:39;98742.00;;;5.53;100.00
36788;BME280;22738;45.560;9.434;2022-12-16T11:10:40;98761.25;;;5.60;100.00
36788;BME280;22738;45.560;9.434;2022-12-16T11:18:00;98754.66;;;5.56;100.00
36788;BME280;22738;45.560;9.434;2022-12-16T11:25:06;98757.69;;;5.49;100.00
36788;BME280;22738;45.560;9.434;2022-12-16T11:32:19;98756.13;;;5.46;100.00
36788;BME280;22738;45.560;9.434;2022-12-16T11:39:22;98751.31;;;5.54;100.00
36788;BME280;22738;45.560;9.434;2022-12-16T11:46:27;98737.56;;;5.55;100.00
36788;BME280;22738;45.560;9.434;2022-12-16T12:01:12;98726.56;;;5.39;100.00
36788;BME280;22738;45.560;9.434;2022-12-16T12:08:22;98732.91;;;5.48;100.00
36788;BME280;22738;45.560;9.434;2022-12-16T12:15:46;98731.31;;;5.59;100.00
36788;BME280;22738;45.560;9.434;2022-12-16T12:22:48;98720.69;;;5.51;100.00
36788;BME280;22738;45.560;9.434;2022-12-16T12:30:17;98723.81;;;5.56;100.00
36788;BME280;22738;45.560;9.434;2022-12-16T12:52:10;98732.03;;;5.75;100.00
36788;BME280;22738;45.560;9.434;2022-12-16T12:59:59;98725.25;;;5.74;100.00
36788;BME280;22738;45.560;9.434;2022-12-16T13:06:34;98738.19;;;5.87;100.00
36788;BME280;22738;45.560;9.434;2022-12-16T13:13:36;98740.47;;;5.92;100.00
36788;BME280;22738;45.560;9.434;2022-12-16T13:20:36;98742.28;;;6.04;100.00
36788;BME280;22738;45.560;9.434;2022-12-16T13:27:54;98746.91;;;5.99;100.00
36788;BME280;22738;45.560;9.434;2022-12-16T13:35:01;98737.50;;;5.98;100.00
36788;BME280;22738;45.560;9.434;2022-12-16T13:42:01;98754.94;;;6.07;100.00
36788;BME280;22738;45.560;9.434;2022-12-16T13:56:40;98755.78;;;6.07;100.00
36788;BME280;22738;45.560;9.434;2022-12-16T14:03:46;98759.03;;;5.97;100.00
36788;BME280;22738;45.560;9.434;2022-12-16T14:10:55;98762.50;;;5.96;100.00
36788;BME280;22738;45.560;9.434;2022-12-16T14:18:02;98779.94;;;5.91;100.00
36788;BME280;22738;45.560;9.434;2022-12-16T14:25:15;98781.63;;;5.92;100.00
36788;BME280;22738;45.560;9.434;2022-12-16T14:39:27;98790.06;;;5.94;100.00
36788;BME280;22738;45.560;9.434;2022-12-16T14:46:31;98807.88;;;5.97;100.00
36788;BME280;22738;45.560;9.434;2022-12-16T14:53:31;98803.28;;;6.02;100.00
36788;BME280;22738;45.560;9.434;2022-12-16T15:00:32;98818.91;;;5.99;100.00
36788;BME280;22738;45.560;9.434;2022-12-16T15:07:35;98830.81;;;6.00;100.00
36788;BME280;22738;45.560;9.434;2022-12-16T15:14:37;98848.91;;;5.98;100.00
36788;BME280;22738;45.560;9.434;2022-12-16T15:21:38;98852.59;;;5.94;100.00
36788;BME280;22738;45.560;9.434;2022-12-16T15:28:39;98868.22;;;5.91;100.00
36788;BME280;22738;45.560;9.434;2022-12-16T15:35:40;98872.53;;;5.91;100.00
36788;BME280;22738;45.560;9.434;2022-12-16T15:42:41;98878.44;;;5.93;100.00
36788;BME280;22738;45.560;9.434;2022-12-16T15:49:46;98894.94;;;5.89;100.00
36788;BME280;22738;45.560;9.434;2022-12-16T15:56:46;98901.25;;;5.83;100.00
36788;BME280;22738;45.560;9.434;2022-12-16T16:03:51;98904.47;;;5.87;100.00
36788;BME280;22738;45.560;9.434;2022-12-16T16:10:51;98914.75;;;5.87;100.00
36788;BME280;22738;45.560;9.434;2022-12-16T16:17:55;98923.22;;;5.89;100.00
36788;BME280;22738;45.560;9.434;2022-12-16T16:24:56;98917.91;;;5.92;100.00
36788;BME280;22738;45.560;9.434;2022-12-16T16:31:58;98935.91;;;5.92;100.00
36788;BME280;22738;45.560;9.434;2022-12-16T16:39:00;98946.91;;;5.94;100.00
36788;BME280;22738;45.560;9.434;2022-12-16T16:46:26;98942.72;;;5.93;100.00
36788;BME280;22738;45.560;9.434;2022-12-16T16:53:24;98947.00;;;5.92;100.00
36788;BME280;22738;45.560;9.434;2022-12-16T17:00:24;98961.44;;;5.95;100.00
36788;BME280;22738;45.560;9.434;2022-12-16T17:07:25;98959.59;;;5.97;100.00
36788;BME280;22738;45.560;9.434;2022-12-16T17:14:25;98951.88;;;5.97;100.00
36788;BME280;22738;45.560;9.434;2022-12-16T17:21:25;98957.03;;;5.97;100.00
36788;BME280;22738;45.560;9.434;2022-12-16T17:28:25;98947.09;;;5.91;100.00
36788;BME280;22738;45.560;9.434;2022-12-16T17:35:30;98950.88;;;5.85;100.00
36788;BME280;22738;45.560;9.434;2022-12-16T17:42:30;98964.63;;;5.84;100.00
36788;BME280;22738;45.560;9.434;2022-12-16T17:49:29;98968.75;;;5.87;100.00
36788;BME280;22738;45.560;9.434;2022-12-16T17:56:29;98975.06;;;5.81;100.00
36788;BME280;22738;45.560;9.434;2022-12-16T18:03:29;98986.16;;;5.82;100.00
36788;BME280;22738;45.560;9.434;2022-12-16T18:10:28;98978.97;;;5.88;100.00
36788;BME280;22738;45.560;9.434;2022-12-16T18:17:28;98973.56;;;5.93;100.00
36788;BME280;22738;45.560;9.434;2022-12-16T18:24:27;98975.38;;;5.91;100.00
36788;BME280;22738;45.560;9.434;2022-12-16T18:31:27;98973.56;;;5.93;100.00
36788;BME280;22738;45.560;9.434;2022-12-16T18:38:27;98973.38;;;5.96;100.00
36788;BME280;22738;45.560;9.434;2022-12-16T18:45:27;98986.44;;;5.93;100.00
36788;BME280;22738;45.560;9.434;2022-12-16T18:52:27;98990.47;;;5.97;100.00
36788;BME280;22738;45.560;9.434;2022-12-16T18:59:27;99006.22;;;5.91;100.00
36788;BME280;22738;45.560;9.434;2022-12-16T19:06:26;99021.66;;;5.91;100.00
36788;BME280;22738;45.560;9.434;2022-12-16T19:13:26;99017.34;;;5.91;100.00
36788;BME280;22738;45.560;9.434;2022-12-16T19:20:25;99027.00;;;5.88;100.00
36788;BME280;22738;45.560;9.434;2022-12-16T19:27:26;99019.75;;;5.94;100.00
36788;BME280;22738;45.560;9.434;2022-12-16T19:34:28;99024.78;;;5.96;100.00
36788;BME280;22738;45.560;9.434;2022-12-16T19:41:28;99031.34;;;6.01;100.00
36788;BME280;22738;45.560;9.434;2022-12-16T19:48:27;99036.75;;;5.97;100.00
36788;BME280;22738;45.560;9.434;2022-12-16T19:55:27;99041.78;;;5.98;100.00
36788;BME280;22738;45.560;9.434;2022-12-16T20:02:26;99051.81;;;6.03;100.00
36788;BME280;22738;45.560;9.434;2022-12-16T20:09:26;99045.41;;;6.10;100.00
36788;BME280;22738;45.560;9.434;2022-12-16T20:16:25;99053.13;;;6.10;100.00
36788;BME280;22738;45.560;9.434;2022-12-16T20:23:25;99074.88;;;6.04;100.00
36788;BME280;22738;45.560;9.434;2022-12-16T20:30:24;99079.63;;;5.96;100.00
36788;BME280;22738;45.560;9.434;2022-12-16T20:37:24;99096.63;;;5.99;100.00
36788;BME280;22738;45.560;9.434;2022-12-16T20:44:24;99101.78;;;5.99;100.00
36788;BME280;22738;45.560;9.434;2022-12-16T20:51:23;99101.09;;;5.95;100.00
36788;BME280;22738;45.560;9.434;2022-12-16T20:58:23;99103.78;;;5.94;100.00
36788;BME280;22738;45.560;9.434;2022-12-16T21:05:23;99122.03;;;5.89;100.00
36788;BME280;22738;45.560;9.434;2022-12-16T21:12:22;99125.59;;;5.87;100.00
36788;BME280;22738;45.560;9.434;2022-12-16T21:19:22;99128.19;;;5.87;100.00
36788;BME280;22738;45.560;9.434;2022-12-16T21:26:21;99144.34;;;5.89;100.00
36788;BME280;22738;45.560;9.434;2022-12-16T21:33:21;99138.13;;;5.93;100.00
36788;BME280;22738;45.560;9.434;2022-12-16T21:40:35;99148.25;;;5.96;100.00
36788;BME280;22738;45.560;9.434;2022-12-16T21:47:35;99158.72;;;5.93;100.00
36788;BME280;22738;45.560;9.434;2022-12-16T21:54:35;99171.56;;;5.93;100.00
36788;BME280;22738;45.560;9.434;2022-12-16T22:01:34;99175.63;;;5.97;100.00
36788;BME280;22738;45.560;9.434;2022-12-16T22:08:34;99180.03;;;5.95;100.00
36788;BME280;22738;45.560;9.434;2022-12-16T22:15:34;99182.41;;;5.98;100.00
36788;BME280;22738;45.560;9.434;2022-12-16T22:22:34;99196.19;;;5.97;100.00
36788;BME280;22738;45.560;9.434;2022-12-16T22:29:34;99191.06;;;5.97;100.00
36788;BME280;22738;45.560;9.434;2022-12-16T22:36:34;99187.28;;;6.02;100.00
36788;BME280;22738;45.560;9.434;2022-12-16T22:43:34;99190.53;;;6.06;100.00
36788;BME280;22738;45.560;9.434;2022-12-16T22:50:33;99187.22;;;6.04;100.00
36788;BME280;22738;45.560;9.434;2022-12-16T22:57:33;99189.81;;;6.04;100.00
36788;BME280;22738;45.560;9.434;2022-12-16T23:04:34;99194.84;;;6.05;100.00
36788;BME280;22738;45.560;9.434;2022-12-16T23:11:37;99203.22;;;6.09;100.00
36788;BME280;22738;45.560;9.434;2022-12-16T23:18:37;99201.22;;;6.14;100.00
36788;BME280;22738;45.560;9.434;2022-12-16T23:25:37;99210.63;;;6.15;100.00
36788;BME280;22738;45.560;9.434;2022-12-16T23:32:37;99217.59;;;6.13;100.00
36788;BME280;22738;45.560;9.434;2022-12-16T23:39:36;99214.28;;;6.11;100.00
36788;BME280;22738;45.560;9.434;2022-12-16T23:46:39;99210.03;;;6.10;100.00
36788;BME280;22738;45.560;9.434;2022-12-16T23:53:38;99225.47;;;6.10;100.00
